sensor_id;sensor_type;location;lat;lon;timestamp;temperature;humidity
46331;DHT22;32049;52.346;4.870;2022-09-30T07:19:11;11.10;99.90
46331;DHT22;32049;52.346;4.870;2022-09-30T07:21:58;11.20;99.90
46331;DHT22;32049;52.346;4.870;2022-09-30T07:25:06;11.30;99.90
46331;DHT22;32049;52.346;4.870;2022-09-30T07:27:55;11.30;99.90
46331;DHT22;32049;52.346;4.870;2022-09-30T07:30:43;11.40;99.90
46331;DHT22;32049;52.346;4.870;2022-09-30T07:33:30;11.60;99.90
46331;DHT22;32049;52.346;4.870;2022-09-30T07:36:21;11.60;99.90
46331;DHT22;32049;52.346;4.870;2022-09-30T07:39:19;11.80;99.90
46331;DHT22;32049;52.346;4.870;2022-09-30T08:04:25;12.30;99.90
46331;DHT22;32049;52.346;4.870;2022-09-30T08:07:19;12.30;99.90
46331;DHT22;32049;52.346;4.870;2022-09-30T08:10:07;12.30;99.90
46331;DHT22;32049;52.346;4.870;2022-09-30T08:12:55;12.40;99.90
46331;DHT22;32049;52.346;4.870;2022-09-30T08:19:25;12.40;99.90
46331;DHT22;32049;52.346;4.870;2022-09-30T08:22:35;12.40;99.90
46331;DHT22;32049;52.346;4.870;2022-09-30T08:25:23;12.40;99.90
46331;DHT22;32049;52.346;4.870;2022-09-30T08:28:11;12.50;99.90
46331;DHT22;32049;52.346;4.870;2022-09-30T08:34:58;12.40;99.90
46331;DHT22;32049;52.346;4.870;2022-09-30T08:37:46;12.50;99.90
46331;DHT22;32049;52.346;4.870;2022-09-30T08:40:36;12.50;99.90
46331;DHT22;32049;52.346;4.870;2022-09-30T08:43:41;12.60;99.90
46331;DHT22;32049;52.346;4.870;2022-09-30T08:52:50;12.70;99.90
46331;DHT22;32049;52.346;4.870;2022-09-30T08:55:44;12.80;99.90
46331;DHT22;32049;52.346;4.870;2022-09-30T08:58:53;12.80;99.90
46331;DHT22;32049;52.346;4.870;2022-09-30T09:02:45;12.80;99.90
46331;DHT22;32049;52.346;4.870;2022-09-30T09:12:08;13.10;99.90
46331;DHT22;32049;52.346;4.870;2022-09-30T09:18:41;13.30;99.90
46331;DHT22;32049;52.346;4.870;2022-09-30T09:24:41;13.40;99.90
46331;DHT22;32049;52.346;4.870;2022-09-30T09:27:50;13.50;99.90
46331;DHT22;32049;52.346;4.870;2022-09-30T09:30:50;13.50;99.90
46331;DHT22;32049;52.346;4.870;2022-09-30T09:33:39;13.80;99.90
46331;DHT22;32049;52.346;4.870;2022-09-30T09:40:05;14.30;99.90
46331;DHT22;32049;52.346;4.870;2022-09-30T09:43:08;15.00;99.90
46331;DHT22;32049;52.346;4.870;2022-09-30T09:46:20;15.00;99.90
46331;DHT22;32049;52.346;4.870;2022-09-30T09:54:55;15.80;99.90
46331;DHT22;32049;52.346;4.870;2022-09-30T09:57:50;15.80;99.90
46331;DHT22;32049;52.346;4.870;2022-09-30T10:01:09;16.10;99.90
46331;DHT22;32049;52.346;4.870;2022-09-30T10:07:21;16.50;99.90
46331;DHT22;32049;52.346;4.870;2022-09-30T10:10:17;16.40;99.90
46331;DHT22;32049;52.346;4.870;2022-09-30T10:13:31;16.50;99.90
46331;DHT22;32049;52.346;4.870;2022-09-30T10:16:42;16.70;99.90
46331;DHT22;32049;52.346;4.870;2022-09-30T10:19:34;17.20;99.90
46331;DHT22;32049;52.346;4.870;2022-09-30T10:22:29;17.00;99.90
46331;DHT22;32049;52.346;4.870;2022-09-30T10:25:23;16.40;99.90
46331;DHT22;32049;52.346;4.870;2022-09-30T10:28:32;16.50;99.90
46331;DHT22;32049;52.346;4.870;2022-09-30T10:31:32;16.30;99.90
46331;DHT22;32049;52.346;4.870;2022-09-30T10:34:35;16.00;99.90
46331;DHT22;32049;52.346;4.870;2022-09-30T10:37:23;15.70;99.90
46331;DHT22;32049;52.346;4.870;2022-09-30T10:40:15;15.70;99.90
46331;DHT22;32049;52.346;4.870;2022-09-30T10:43:17;16.20;99.90
46331;DHT22;32049;52.346;4.870;2022-09-30T10:46:07;16.60;99.90
46331;DHT22;32049;52.346;4.870;2022-09-30T12:38:52;17.50;99.90
46331;DHT22;32049;52.346;4.870;2022-09-30T12:42:01;17.90;99.90
46331;DHT22;32049;52.346;4.870;2022-09-30T12:49:04;17.60;99.90
46331;DHT22;32049;52.346;4.870;2022-09-30T12:51:56;17.20;99.90
46331;DHT22;32049;52.346;4.870;2022-09-30T12:57:59;16.80;99.90
46331;DHT22;32049;52.346;4.870;2022-09-30T13:01:24;17.10;99.90
46331;DHT22;32049;52.346;4.870;2022-09-30T13:19:03;16.60;99.90
46331;DHT22;32049;52.346;4.870;2022-09-30T13:21:51;16.60;99.90
46331;DHT22;32049;52.346;4.870;2022-09-30T13:27:52;16.50;99.90
46331;DHT22;32049;52.346;4.870;2022-09-30T13:30:43;16.40;99.90
46331;DHT22;32049;52.346;4.870;2022-09-30T13:36:57;16.10;99.90
46331;DHT22;32049;52.346;4.870;2022-09-30T13:39:53;16.20;99.90
46331;DHT22;32049;52.346;4.870;2022-09-30T13:42:47;16.10;99.90
46331;DHT22;32049;52.346;4.870;2022-09-30T13:45:36;16.20;99.90
46331;DHT22;32049;52.346;4.870;2022-09-30T13:48:34;16.20;99.90
46331;DHT22;32049;52.346;4.870;2022-09-30T13:51:27;16.30;99.90
46331;DHT22;32049;52.346;4.870;2022-09-30T13:54:32;16.40;99.90
46331;DHT22;32049;52.346;4.870;2022-09-30T13:57:29;17.00;99.90
46331;DHT22;32049;52.346;4.870;2022-09-30T14:00:19;16.90;99.90
46331;DHT22;32049;52.346;4.870;2022-09-30T14:16:39;17.10;99.90
46331;DHT22;32049;52.346;4.870;2022-09-30T14:22:50;17.30;99.90
46331;DHT22;32049;52.346;4.870;2022-09-30T14:25:44;17.70;99.90
46331;DHT22;32049;52.346;4.870;2022-09-30T14:31:54;18.10;99.90
46331;DHT22;32049;52.346;4.870;2022-09-30T14:34:42;17.70;99.90
46331;DHT22;32049;52.346;4.870;2022-09-30T14:37:38;17.90;99.90
46331;DHT22;32049;52.346;4.870;2022-09-30T14:40:35;17.70;99.90
46331;DHT22;32049;52.346;4.870;2022-09-30T14:43:29;18.00;99.90
46331;DHT22;32049;52.346;4.870;2022-09-30T14:46:48;18.00;99.90
46331;DHT22;32049;52.346;4.870;2022-09-30T14:49:36;18.00;99.90
46331;DHT22;32049;52.346;4.870;2022-09-30T14:52:36;17.90;99.70
46331;DHT22;32049;52.346;4.870;2022-09-30T14:55:33;17.80;99.50
46331;DHT22;32049;52.346;4.870;2022-09-30T14:58:27;17.90;99.70
46331;DHT22;32049;52.346;4.870;2022-09-30T15:01:15;18.10;99.60
46331;DHT22;32049;52.346;4.870;2022-09-30T15:04:12;18.10;99.90
46331;DHT22;32049;52.346;4.870;2022-09-30T15:07:02;18.60;99.90
46331;DHT22;32049;52.346;4.870;2022-09-30T15:09:51;18.30;99.60
46331;DHT22;32049;52.346;4.870;2022-09-30T15:12:41;17.90;99.90
46331;DHT22;32049;52.346;4.870;2022-09-30T15:15:35;17.90;99.90
46331;DHT22;32049;52.346;4.870;2022-09-30T15:18:32;17.70;99.90
46331;DHT22;32049;52.346;4.870;2022-09-30T15:21:21;17.40;99.90
46331;DHT22;32049;52.346;4.870;2022-09-30T15:24:10;17.50;99.90
46331;DHT22;32049;52.346;4.870;2022-09-30T15:26:59;17.70;99.90
46331;DHT22;32049;52.346;4.870;2022-09-30T15:30:22;17.60;99.90
46331;DHT22;32049;52.346;4.870;2022-09-30T15:36:45;17.50;99.90
46331;DHT22;32049;52.346;4.870;2022-09-30T15:39:40;16.90;99.90
46331;DHT22;32049;52.346;4.870;2022-09-30T15:42:57;16.80;99.90
46331;DHT22;32049;52.346;4.870;2022-09-30T15:45:48;16.50;99.90
46331;DHT22;32049;52.346;4.870;2022-09-30T15:48:39;16.40;99.90
46331;DHT22;32049;52.346;4.870;2022-09-30T15:54:34;16.50;99.90
46331;DHT22;32049;52.346;4.870;2022-09-30T15:57:48;16.30;99.90
46331;DHT22;32049;52.346;4.870;2022-09-30T16:00:40;16.30;99.90
46331;DHT22;32049;52.346;4.870;2022-09-30T16:03:28;16.10;99.90
46331;DHT22;32049;52.346;4.870;2022-09-30T16:06:25;16.10;99.90
46331;DHT22;32049;52.346;4.870;2022-09-30T16:15:15;16.00;99.90
46331;DHT22;32049;52.346;4.870;2022-09-30T16:18:03;16.00;99.90
46331;DHT22;32049;52.346;4.870;2022-09-30T16:21:02;16.00;99.90
46331;DHT22;32049;52.346;4.870;2022-09-30T16:23:49;16.00;99.90
46331;DHT22;32049;52.346;4.870;2022-09-30T16:26:43;15.90;99.90
46331;DHT22;32049;52.346;4.870;2022-09-30T16:29:31;15.90;99.90
46331;DHT22;32049;52.346;4.870;2022-09-30T16:32:18;15.80;99.90
46331;DHT22;32049;52.346;4.870;2022-09-30T16:35:17;15.80;99.90
46331;DHT22;32049;52.346;4.870;2022-09-30T16:38:06;15.80;99.90
46331;DHT22;32049;52.346;4.870;2022-09-30T16:40:56;15.70;99.90
46331;DHT22;32049;52.346;4.870;2022-09-30T16:43:44;15.70;99.90
46331;DHT22;32049;52.346;4.870;2022-09-30T16:46:31;15.60;99.90
46331;DHT22;32049;52.346;4.870;2022-09-30T16:49:19;15.60;99.90
46331;DHT22;32049;52.346;4.870;2022-09-30T16:52:09;15.50;99.90
46331;DHT22;32049;52.346;4.870;2022-09-30T16:54:57;15.50;99.90
46331;DHT22;32049;52.346;4.870;2022-09-30T16:57:45;15.40;99.90
46331;DHT22;32049;52.346;4.870;2022-09-30T17:00:33;15.40;99.90
46331;DHT22;32049;52.346;4.870;2022-09-30T17:03:20;15.40;99.90
46331;DHT22;32049;52.346;4.870;2022-09-30T17:06:08;15.40;99.90
46331;DHT22;32049;52.346;4.870;2022-09-30T17:08:56;15.30;99.90
46331;DHT22;32049;52.346;4.870;2022-09-30T17:11:44;15.30;99.90
46331;DHT22;32049;52.346;4.870;2022-09-30T17:14:31;15.20;99.90
46331;DHT22;32049;52.346;4.870;2022-09-30T17:17:19;15.20;99.90
46331;DHT22;32049;52.346;4.870;2022-09-30T17:20:07;15.30;99.90
46331;DHT22;32049;52.346;4.870;2022-09-30T17:22:55;15.10;99.90
46331;DHT22;32049;52.346;4.870;2022-09-30T17:25:42;15.10;99.90
46331;DHT22;32049;52.346;4.870;2022-09-30T17:28:30;15.10;99.90
46331;DHT22;32049;52.346;4.870;2022-09-30T17:31:20;15.10;99.90
46331;DHT22;32049;52.346;4.870;2022-09-30T17:34:08;15.00;99.90
46331;DHT22;32049;52.346;4.870;2022-09-30T17:36:55;15.10;99.90
46331;DHT22;32049;52.346;4.870;2022-09-30T17:39:43;15.10;99.90
46331;DHT22;32049;52.346;4.870;2022-09-30T17:42:30;15.00;99.90
46331;DHT22;32049;52.346;4.870;2022-09-30T17:45:44;14.90;99.90
46331;DHT22;32049;52.346;4.870;2022-09-30T17:48:34;14.90;99.90
46331;DHT22;32049;52.346;4.870;2022-09-30T17:51:24;14.90;99.90
46331;DHT22;32049;52.346;4.870;2022-09-30T17:54:12;14.90;99.90
46331;DHT22;32049;52.346;4.870;2022-09-30T17:56:59;14.90;99.90
46331;DHT22;32049;52.346;4.870;2022-09-30T17:59:46;14.80;99.90
46331;DHT22;32049;52.346;4.870;2022-09-30T18:02:34;14.80;99.90
46331;DHT22;32049;52.346;4.870;2022-09-30T18:05:22;14.70;99.90
46331;DHT22;32049;52.346;4.870;2022-09-30T18:08:12;14.80;99.90
46331;DHT22;32049;52.346;4.870;2022-09-30T18:11:00;14.70;99.90
46331;DHT22;32049;52.346;4.870;2022-09-30T18:13:55;14.70;99.90
46331;DHT22;32049;52.346;4.870;2022-09-30T18:16:44;14.70;99.90
46331;DHT22;32049;52.346;4.870;2022-09-30T18:19:32;14.60;99.90
46331;DHT22;32049;52.346;4.870;2022-09-30T18:22:21;14.60;99.90
46331;DHT22;32049;52.346;4.870;2022-09-30T18:25:08;14.60;99.90
46331;DHT22;32049;52.346;4.870;2022-09-30T18:28:12;14.60;99.90
46331;DHT22;32049;52.346;4.870;2022-09-30T18:31:06;14.60;99.90
46331;DHT22;32049;52.346;4.870;2022-09-30T18:33:55;14.70;99.90
46331;DHT22;32049;52.346;4.870;2022-09-30T18:36:43;14.60;99.90
46331;DHT22;32049;52.346;4.870;2022-09-30T18:39:33;14.60;99.90
46331;DHT22;32049;52.346;4.870;2022-09-30T18:42:21;14.50;99.90
46331;DHT22;32049;52.346;4.870;2022-09-30T18:45:09;14.60;99.90
46331;DHT22;32049;52.346;4.870;2022-09-30T18:47:59;14.60;99.90
46331;DHT22;32049;52.346;4.870;2022-09-30T18:50:46;14.60;99.90
46331;DHT22;32049;52.346;4.870;2022-09-30T18:53:35;14.50;99.90
46331;DHT22;32049;52.346;4.870;2022-09-30T18:56:24;14.60;99.90
46331;DHT22;32049;52.346;4.870;2022-09-30T18:59:12;14.50;99.90
46331;DHT22;32049;52.346;4.870;2022-09-30T19:02:12;14.50;99.90
46331;DHT22;32049;52.346;4.870;2022-09-30T19:05:00;14.50;99.90
46331;DHT22;32049;52.346;4.870;2022-09-30T19:07:47;14.50;99.90
46331;DHT22;32049;52.346;4.870;2022-09-30T19:10:39;14.40;99.90
46331;DHT22;32049;52.346;4.870;2022-09-30T19:13:27;14.50;99.90
46331;DHT22;32049;52.346;4.870;2022-09-30T19:16:34;14.40;99.90
46331;DHT22;32049;52.346;4.870;2022-09-30T19:19:25;14.40;99.90
46331;DHT22;32049;52.346;4.870;2022-09-30T19:22:13;14.30;99.90
46331;DHT22;32049;52.346;4.870;2022-09-30T19:25:00;14.40;99.90
46331;DHT22;32049;52.346;4.870;2022-09-30T19:27:48;14.30;99.90
46331;DHT22;32049;52.346;4.870;2022-09-30T19:30:36;14.30;99.90
46331;DHT22;32049;52.346;4.870;2022-09-30T19:33:27;14.30;99.90
46331;DHT22;32049;52.346;4.870;2022-09-30T19:36:15;14.40;99.90
46331;DHT22;32049;52.346;4.870;2022-09-30T19:39:02;14.30;99.90
46331;DHT22;32049;52.346;4.870;2022-09-30T19:41:58;14.30;99.90
46331;DHT22;32049;52.346;4.870;2022-09-30T19:44:50;14.20;99.90
46331;DHT22;32049;52.346;4.870;2022-09-30T19:47:38;14.20;99.90
46331;DHT22;32049;52.346;4.870;2022-09-30T19:50:25;14.20;99.90
46331;DHT22;32049;52.346;4.870;2022-09-30T19:53:13;14.20;99.90
46331;DHT22;32049;52.346;4.870;2022-09-30T19:56:17;14.30;99.90
46331;DHT22;32049;52.346;4.870;2022-09-30T19:59:05;14.30;99.90
46331;DHT22;32049;52.346;4.870;2022-09-30T20:01:52;14.30;99.90
46331;DHT22;32049;52.346;4.870;2022-09-30T20:04:40;14.30;99.90
46331;DHT22;32049;52.346;4.870;2022-09-30T20:07:30;14.20;99.90
46331;DHT22;32049;52.346;4.870;2022-09-30T20:10:17;14.20;99.90
46331;DHT22;32049;52.346;4.870;2022-09-30T20:13:05;14.20;99.90
46331;DHT22;32049;52.346;4.870;2022-09-30T20:15:52;14.20;99.90
46331;DHT22;32049;52.346;4.870;2022-09-30T20:18:41;14.20;99.90
46331;DHT22;32049;52.346;4.870;2022-09-30T20:21:29;14.10;99.90
46331;DHT22;32049;52.346;4.870;2022-09-30T20:24:17;14.20;99.90
46331;DHT22;32049;52.346;4.870;2022-09-30T20:27:05;14.20;99.90
46331;DHT22;32049;52.346;4.870;2022-09-30T20:29:53;14.10;99.90
46331;DHT22;32049;52.346;4.870;2022-09-30T20:32:40;14.20;99.90
46331;DHT22;32049;52.346;4.870;2022-09-30T20:35:28;14.10;99.90
46331;DHT22;32049;52.346;4.870;2022-09-30T20:38:17;14.10;99.90
46331;DHT22;32049;52.346;4.870;2022-09-30T20:41:10;14.10;99.90
46331;DHT22;32049;52.346;4.870;2022-09-30T20:43:58;14.10;99.90
46331;DHT22;32049;52.346;4.870;2022-09-30T20:46:46;14.00;99.90
46331;DHT22;32049;52.346;4.870;2022-09-30T20:49:33;14.00;99.90
46331;DHT22;32049;52.346;4.870;2022-09-30T20:52:22;13.90;99.90
46331;DHT22;32049;52.346;4.870;2022-09-30T20:55:10;13.80;99.90
46331;DHT22;32049;52.346;4.870;2022-09-30T20:57:57;13.80;99.90
46331;DHT22;32049;52.346;4.870;2022-09-30T21:00:45;13.80;99.90
46331;DHT22;32049;52.346;4.870;2022-09-30T21:03:53;13.70;99.90
46331;DHT22;32049;52.346;4.870;2022-09-30T21:06:45;13.50;99.90
46331;DHT22;32049;52.346;4.870;2022-09-30T21:09:47;13.50;99.90
46331;DHT22;32049;52.346;4.870;2022-09-30T21:12:34;13.30;99.90
46331;DHT22;32049;52.346;4.870;2022-09-30T21:15:21;13.40;99.90
46331;DHT22;32049;52.346;4.870;2022-09-30T21:18:09;13.30;99.90
46331;DHT22;32049;52.346;4.870;2022-09-30T21:20:59;13.40;99.90
46331;DHT22;32049;52.346;4.870;2022-09-30T21:23:47;13.40;99.90
46331;DHT22;32049;52.346;4.870;2022-09-30T21:26:34;13.20;99.90
46331;DHT22;32049;52.346;4.870;2022-09-30T21:29:22;13.20;99.90
46331;DHT22;32049;52.346;4.870;2022-09-30T21:32:10;13.20;99.90
46331;DHT22;32049;52.346;4.870;2022-09-30T21:34:57;13.20;99.90
46331;DHT22;32049;52.346;4.870;2022-09-30T21:37:47;13.10;99.90
46331;DHT22;32049;52.346;4.870;2022-09-30T21:40:35;13.00;99.90
46331;DHT22;32049;52.346;4.870;2022-09-30T21:43:22;13.10;99.90
46331;DHT22;32049;52.346;4.870;2022-09-30T21:46:12;13.00;99.90
46331;DHT22;32049;52.346;4.870;2022-09-30T21:49:14;12.90;99.90
46331;DHT22;32049;52.346;4.870;2022-09-30T21:52:02;12.90;99.90
46331;DHT22;32049;52.346;4.870;2022-09-30T21:54:53;12.70;99.90
46331;DHT22;32049;52.346;4.870;2022-09-30T21:57:43;12.70;99.90
46331;DHT22;32049;52.346;4.870;2022-09-30T22:00:31;12.60;99.90
46331;DHT22;32049;52.346;4.870;2022-09-30T22:03:19;12.70;99.90
46331;DHT22;32049;52.346;4.870;2022-09-30T22:06:08;12.60;99.90
46331;DHT22;32049;52.346;4.870;2022-09-30T22:08:57;12.50;99.90
46331;DHT22;32049;52.346;4.870;2022-09-30T22:11:50;12.50;99.90
46331;DHT22;32049;52.346;4.870;2022-09-30T22:14:37;12.60;99.90
46331;DHT22;32049;52.346;4.870;2022-09-30T22:17:25;12.50;99.90
46331;DHT22;32049;52.346;4.870;2022-09-30T22:20:12;12.50;99.90
46331;DHT22;32049;52.346;4.870;2022-09-30T22:22:59;12.40;99.90
46331;DHT22;32049;52.346;4.870;2022-09-30T22:25:47;12.30;99.90
46331;DHT22;32049;52.346;4.870;2022-09-30T22:28:36;12.30;99.90
46331;DHT22;32049;52.346;4.870;2022-09-30T22:31:27;12.20;99.90
46331;DHT22;32049;52.346;4.870;2022-09-30T22:34:19;12.30;99.90
46331;DHT22;32049;52.346;4.870;2022-09-30T22:37:25;12.20;99.90
46331;DHT22;32049;52.346;4.870;2022-09-30T22:40:33;12.10;99.90
46331;DHT22;32049;52.346;4.870;2022-09-30T22:43:23;12.20;99.90
46331;DHT22;32049;52.346;4.870;2022-09-30T22:46:11;12.10;99.90
46331;DHT22;32049;52.346;4.870;2022-09-30T22:48:58;12.20;99.90
46331;DHT22;32049;52.346;4.870;2022-09-30T22:51:52;12.00;99.90
46331;DHT22;32049;52.346;4.870;2022-09-30T22:54:40;12.00;99.90
46331;DHT22;32049;52.346;4.870;2022-09-30T22:57:27;12.10;99.90
46331;DHT22;32049;52.346;4.870;2022-09-30T23:00:14;12.10;99.90
46331;DHT22;32049;52.346;4.870;2022-09-30T23:03:01;12.00;99.90
46331;DHT22;32049;52.346;4.870;2022-09-30T23:05:59;12.00;99.90
46331;DHT22;32049;52.346;4.870;2022-09-30T23:08:46;12.00;99.90
46331;DHT22;32049;52.346;4.870;2022-09-30T23:11:34;12.10;99.90
46331;DHT22;32049;52.346;4.870;2022-09-30T23:17:41;12.00;99.90
46331;DHT22;32049;52.346;4.870;2022-09-30T23:20:29;12.00;99.90
46331;DHT22;32049;52.346;4.870;2022-09-30T23:23:16;12.00;99.90
46331;DHT22;32049;52.346;4.870;2022-09-30T23:26:16;11.90;99.90
46331;DHT22;32049;52.346;4.870;2022-09-30T23:29:10;11.90;99.90
46331;DHT22;32049;52.346;4.870;2022-09-30T23:31:58;11.90;99.90
46331;DHT22;32049;52.346;4.870;2022-09-30T23:34:45;11.80;99.90
46331;DHT22;32049;52.346;4.870;2022-09-30T23:37:32;11.90;99.90
46331;DHT22;32049;52.346;4.870;2022-09-30T23:40:20;11.70;99.90
46331;DHT22;32049;52.346;4.870;2022-09-30T23:43:08;11.80;99.90
46331;DHT22;32049;52.346;4.870;2022-09-30T23:45:56;11.90;99.90
46331;DHT22;32049;52.346;4.870;2022-09-30T23:48:43;11.80;99.90
46331;DHT22;32049;52.346;4.870;2022-09-30T23:51:32;11.80;99.90
46331;DHT22;32049;52.346;4.870;2022-09-30T23:54:20;11.80;99.90
46331;DHT22;32049;52.346;4.870;2022-09-30T23:57:08;11.70;99.90
46331;DHT22;32049;52.346;4.870;2022-09-30T23:59:56;11.60;99.90
